Time;durP1;ratioP1;P1;durP2;ratioP2;P2;SDS_P1;SDS_P2;PMS_P1;PMS_P2;Temp;Humidity;BMP_temperature;BMP_pressure;BME280_temperature;BME280_humidity;BME280_pressure;Samples;Min_cycle;Max_cycle;Signal;HPM_P1;HPM_P2
2024/03/01 00:01:34;;;;;;;;;;;;;;;;;;4182961;28;19944;-56
2024/03/01 00:03:36;;;;;;;;;;;;;;;;;;4182768;28;19981;-57
2024/03/01 00:05:37;;;;;;;;;;;;;;;;;;4183103;28;19963;-57
2024/03/01 00:07:39;;;;;;;;;;;;;;;;;;4182766;28;20361;-57
2024/03/01 00:09:40;;;;;;;;;;;;;;;;;;4182714;28;19924;-57
2024/03/01 00:11:42;;;;;;;;;;;;;;;;;;4182718;28;19967;-57
2024/03/01 00:13:43;;;;;;;;;;;;;;;;;;4165109;28;19980;-57
2024/03/01 00:15:45;;;;;;;;;;;;;;;;;;4182879;28;19956;-60
2024/03/01 00:17:47;;;;;;;;;;;;;;;;;;4182700;28;19921;-60
2024/03/01 00:19:48;;;;;;;;;;;;;;;;;;4182698;28;19920;-59
2024/03/01 00:21:50;;;;;;;;;;;;;;;;;;4185394;28;20300;-59
2024/03/01 00:23:52;;;;;;;;;;;;;;;;;;4182446;28;19925;-60
2024/03/01 00:25:54;;;;;;;;;;;;;;;;;;4182507;28;19963;-59
2024/03/01 00:27:55;;;;;;;;;;;;;;;;;;4182440;28;19921;-59
2024/03/01 00:29:57;;;;;;;;;;;;;;;;;;4182465;28;20411;-59
2024/03/01 00:31:58;;;;;;;;;;;;;;;;;;4182395;28;19979;-59
2024/03/01 00:34:00;;;;;;;;;;;;;;;;;;4182464;28;19987;-59
2024/03/01 00:36:01;;;;;;;;;;;;;;;;;;4182390;28;19943;-60
2024/03/01 00:38:03;;;;;;;;;;;;;;;;;;4182597;28;19921;-59
2024/03/01 00:40:04;;;;;;;;;;;;;;;;;;4182247;28;19967;-60
2024/03/01 00:42:05;;;;;;;;;;;;;;;;;;4182294;28;19967;-60
2024/03/01 00:44:09;;;;;;;;;;;;;;;;;;4181876;28;19955;-60
2024/03/01 00:46:10;;;;;;;;;;;;;;;;;;4182189;28;20446;-60
2024/03/01 00:48:12;;;;;;;;;;;;;;;;;;4181862;28;19924;-60
2024/03/01 00:50:13;;;;;;;;;;;;;;;;;;4182453;28;19927;-60
2024/03/01 00:52:15;;;;;;;;;;;;;;;;;;4182148;28;20287;-60
2024/03/01 00:54:16;;;;;;;;;;;;;;;;;;4182194;28;19951;-60
2024/03/01 00:56:18;;;;;;;;;;;;;;;;;;4182103;28;19921;-59
2024/03/01 00:58:19;;;;;;;;;;;;;;;;;;4182023;28;20065;-60
2024/03/01 01:00:21;;;;;;;;;;;;;;;;;;4182097;28;19964;-60
2024/03/01 01:02:22;;;;;;;;;;;;;;;;;;4182100;28;19959;-60
2024/03/01 01:04:39;;;;;;;;;;;;;;;;;;4181859;28;19925;-59
2024/03/01 01:06:41;;;;;;;;;;;;;;;;;;4181731;28;19924;-59
2024/03/01 01:08:42;;;;;;;;;;;;;;;;;;4181019;28;19931;-59
2024/03/01 01:10:44;;;;;;;;;;;;;;;;;;4180580;28;19927;-59
2024/03/01 01:12:45;;;;;;;;;;;;;;;;;;4180257;28;20004;-59
2024/03/01 01:14:47;;;;;;;;;;;;;;;;;;4180546;28;19921;-59
2024/03/01 01:16:48;;;;;;;;;;;;;;;;;;4181330;28;19947;-59
2024/03/01 01:18:50;;;;;;;;;;;;;;;;;;4184229;28;19921;-59
2024/03/01 01:20:51;;;;;;;;;;;;;;;;;;4181350;28;19924;-59
2024/03/01 01:22:53;;;;;;;;;;;;;;;;;;4181325;28;19925;-59
2024/03/01 01:24:54;;;;;;;;;;;;;;;;;;4181330;28;19922;-56
2024/03/01 01:26:56;;;;;;;;;;;;;;;;;;4180969;28;19921;-57
2024/03/01 01:28:57;;;;;;;;;;;;;;;;;;4181481;28;19978;-56
2024/03/01 01:30:59;;;;;;;;;;;;;;;;;;4181583;28;19928;-57
2024/03/01 01:33:00;;;;;;;;;;;;;;;;;;4181499;28;19921;-56
2024/03/01 01:35:02;;;;;;;;;;;;;;;;;;4181759;28;19931;-56
2024/03/01 01:37:04;;;;;;;;;;;;;;;;;;4181437;28;19943;-57
2024/03/01 01:39:05;;;;;;;;;;;;;;;;;;4163708;28;19921;-57
2024/03/01 01:41:07;;;;;;;;;;;;;;;;;;4181408;28;19975;-55
2024/03/01 01:43:08;;;;;;;;;;;;;;;;;;4181387;28;19956;-57
2024/03/01 01:45:10;;;;;;;;;;;;;;;;;;4180916;28;20023;-56
2024/03/01 01:47:11;;;;;;;;;;;;;;;;;;4181263;28;20340;-57
2024/03/01 01:49:12;;;;;;;;;;;;;;;;;;4181301;28;19924;-56
2024/03/01 01:51:14;;;;;;;;;;;;;;;;;;4181501;28;20369;-57
2024/03/01 01:53:15;;;;;;;;;;;;;;;;;;4181198;28;19924;-57
2024/03/01 01:55:21;;;;;;;;;;;;;;;;;;4164396;28;20019;-56
2024/03/01 01:57:23;;;;;;;;;;;;;;;;;;4181204;28;19929;-56
2024/03/01 01:59:24;;;;;;;;;;;;;;;;;;4179760;28;20300;-56
2024/03/01 02:01:26;;;;;;;;;;;;;;;;;;4181750;28;19920;-59
2024/03/01 02:03:27;;;;;;;;;;;;;;;;;;4180362;28;20035;-59
2024/03/01 02:05:29;;;;;;;;;;;;;;;;;;4163237;28;19955;-59
2024/03/01 02:07:31;;;;;;;;;;;;;;;;;;4181354;28;19920;-59
2024/03/01 02:09:32;;;;;;;;;;;;;;;;;;4181028;28;19935;-59
2024/03/01 02:11:34;;;;;;;;;;;;;;;;;;4181335;28;19927;-59
2024/03/01 02:13:35;;;;;;;;;;;;;;;;;;4181094;28;19924;-60
2024/03/01 02:15:37;;;;;;;;;;;;;;;;;;4184129;28;19921;-60
2024/03/01 02:17:38;;;;;;;;;;;;;;;;;;4180948;28;19921;-59
2024/03/01 02:19:40;;;;;;;;;;;;;;;;;;4181379;28;19925;-59
2024/03/01 02:21:41;;;;;;;;;;;;;;;;;;4180902;28;20331;-60
2024/03/01 02:23:43;;;;;;;;;;;;;;;;;;4180940;28;19925;-60
2024/03/01 02:25:44;;;;;;;;;;;;;;;;;;4180941;28;20340;-60
2024/03/01 02:27:45;;;;;;;;;;;;;;;;;;4180799;28;20004;-60
2024/03/01 02:29:47;;;;;;;;;;;;;;;;;;4181011;28;19952;-60
2024/03/01 02:31:48;;;;;;;;;;;;;;;;;;4181156;28;20269;-60
2024/03/01 02:33:50;;;;;;;;;;;;;;;;;;4180989;28;20369;-59
2024/03/01 02:35:52;;;;;;;;;;;;;;;;;;4180934;28;19974;-60
2024/03/01 02:37:53;;;;;;;;;;;;;;;;;;4180935;28;20300;-60
2024/03/01 02:39:55;;;;;;;;;;;;;;;;;;4181377;28;19951;-59
2024/03/01 02:41:56;;;;;;;;;;;;;;;;;;4180689;28;19936;-60
2024/03/01 02:43:58;;;;;;;;;;;;;;;;;;4162850;28;19921;-59
2024/03/01 02:45:59;;;;;;;;;;;;;;;;;;4180802;28;19920;-60
2024/03/01 02:48:01;;;;;;;;;;;;;;;;;;4163350;28;20444;-60
2024/03/01 02:50:02;;;;;;;;;;;;;;;;;;4162955;28;19925;-59
2024/03/01 02:52:04;;;;;;;;;;;;;;;;;;4181003;28;19925;-59
2024/03/01 02:54:05;;;;;;;;;;;;;;;;;;4181186;28;19928;-60
2024/03/01 02:56:07;;;;;;;;;;;;;;;;;;4180974;28;19921;-59
2024/03/01 02:58:08;;;;;;;;;;;;;;;;;;4180682;28;19920;-59
2024/03/01 03:00:12;;;;;;;;;;;;;;;;;;4180666;28;20277;-59
2024/03/01 03:02:14;;;;;;;;;;;;;;;;;;4181687;28;19928;-59
2024/03/01 03:04:15;;;;;;;;;;;;;;;;;;4186761;28;20006;-60
2024/03/01 03:06:17;;;;;;;;;;;;;;;;;;4197647;28;19951;-56
2024/03/01 03:08:18;;;;;;;;;;;;;;;;;;4197258;28;19921;-57
2024/03/01 03:10:20;;;;;;;;;;;;;;;;;;4197972;28;19943;-57
2024/03/01 03:12:21;;;;;;;;;;;;;;;;;;4184798;28;19921;-57
2024/03/01 03:14:23;;;;;;;;;;;;;;;;;;4182913;28;19925;-57
2024/03/01 03:16:25;;;;;;;;;;;;;;;;;;4182841;28;20296;-56
2024/03/01 03:18:26;;;;;;;;;;;;;;;;;;4182951;28;20363;-57
2024/03/01 03:20:28;;;;;;;;;;;;;;;;;;4182927;28;19928;-56
2024/03/01 03:22:29;;;;;;;;;;;;;;;;;;4182890;28;19925;-57
2024/03/01 03:24:31;;;;;;;;;;;;;;;;;;4183027;28;20012;-57
2024/03/01 03:26:33;;;;;;;;;;;;;;;;;;4183238;28;20308;-57
2024/03/01 03:28:34;;;;;;;;;;;;;;;;;;4182705;28;19978;-56
2024/03/01 03:30:36;;;;;;;;;;;;;;;;;;4183503;28;19927;-57
2024/03/01 03:32:37;;;;;;;;;;;;;;;;;;4183685;28;19921;-56
2024/03/01 03:34:39;;;;;;;;;;;;;;;;;;4183654;28;19921;-57
2024/03/01 03:36:40;;;;;;;;;;;;;;;;;;4183341;28;20273;-57
2024/03/01 03:38:42;;;;;;;;;;;;;;;;;;4165684;28;19921;-57
2024/03/01 03:40:44;;;;;;;;;;;;;;;;;;4183474;28;19928;-57
2024/03/01 03:42:46;;;;;;;;;;;;;;;;;;4183865;28;20426;-57
2024/03/01 03:44:47;;;;;;;;;;;;;;;;;;4182824;28;19994;-57
2024/03/01 03:46:49;;;;;;;;;;;;;;;;;;4183182;28;19920;-56
2024/03/01 03:48:50;;;;;;;;;;;;;;;;;;4183352;28;19921;-56
2024/03/01 03:50:52;;;;;;;;;;;;;;;;;;4165640;28;19971;-57
2024/03/01 03:52:53;;;;;;;;;;;;;;;;;;4183072;28;20110;-57
2024/03/01 03:54:55;;;;;;;;;;;;;;;;;;4183148;28;19921;-57
2024/03/01 03:56:56;;;;;;;;;;;;;;;;;;4183028;28;19931;-56
2024/03/01 03:58:58;;;;;;;;;;;;;;;;;;4189706;28;19932;-57
2024/03/01 04:00:59;;;;;;;;;;;;;;;;;;4199428;28;19974;-56
2024/03/01 04:03:01;;;;;;;;;;;;;;;;;;4181736;28;20435;-56
2024/03/01 04:05:02;;;;;;;;;;;;;;;;;;4199519;28;19950;-57
2024/03/01 04:07:04;;;;;;;;;;;;;;;;;;4177495;28;20293;-57
2024/03/01 04:09:09;;;;;;;;;;;;;;;;;;4182869;28;19920;-57
2024/03/01 04:11:11;;;;;;;;;;;;;;;;;;4182770;28;19978;-57
2024/03/01 04:13:12;;;;;;;;;;;;;;;;;;4182609;28;19924;-56
2024/03/01 04:15:14;;;;;;;;;;;;;;;;;;4183127;28;19971;-61
2024/03/01 04:17:16;;;;;;;;;;;;;;;;;;4182791;28;19932;-60
2024/03/01 04:19:17;;;;;;;;;;;;;;;;;;4182817;28;20600;-61
2024/03/01 04:21:19;;;;;;;;;;;;;;;;;;4182085;28;19972;-61
2024/03/01 04:23:20;;;;;;;;;;;;;;;;;;4182104;28;19978;-61
2024/03/01 04:25:23;;;;;;;;;;;;;;;;;;4182721;28;19928;-61
2024/03/01 04:27:25;;;;;;;;;;;;;;;;;;4182658;28;19927;-61
2024/03/01 04:29:27;;;;;;;;;;;;;;;;;;4182747;28;19920;-61
2024/03/01 04:31:29;;;;;;;;;;;;;;;;;;4182464;28;20296;-61
2024/03/01 04:33:31;;;;;;;;;;;;;;;;;;4182516;28;20422;-61
2024/03/01 04:35:33;;;;;;;;;;;;;;;;;;4182626;28;19928;-61
2024/03/01 04:37:34;;;;;;;;;;;;;;;;;;4182459;28;19963;-61
2024/03/01 04:39:36;;;;;;;;;;;;;;;;;;4182663;28;19920;-61
2024/03/01 04:41:37;;;;;;;;;;;;;;;;;;4182284;28;19921;-61
2024/03/01 04:43:40;;;;;;;;;;;;;;;;;;4182486;28;19951;-60
2024/03/01 04:45:42;;;;;;;;;;;;;;;;;;4182079;28;19927;-61
2024/03/01 04:47:45;;;;;;;;;;;;;;;;;;4182423;28;19920;-61
2024/03/01 04:49:47;;;;;;;;;;;;;;;;;;4182265;28;20387;-61
2024/03/01 04:51:48;;;;;;;;;;;;;;;;;;4182263;28;20369;-61
2024/03/01 04:53:50;;;;;;;;;;;;;;;;;;4182223;28;19925;-60
2024/03/01 04:55:51;;;;;;;;;;;;;;;;;;4182165;28;19925;-61
2024/03/01 04:57:53;;;;;;;;;;;;;;;;;;4182281;28;19921;-61
2024/03/01 04:59:54;;;;;;;;;;;;;;;;;;4182123;28;19925;-60
2024/03/01 05:01:56;;;;;;;;;;;;;;;;;;4182044;28;19947;-61
2024/03/01 05:03:57;;;;;;;;;;;;;;;;;;4167940;28;20285;-61
2024/03/01 05:05:59;;;;;;;;;;;;;;;;;;4181924;28;19959;-61
2024/03/01 05:08:00;;;;;;;;;;;;;;;;;;4182049;28;19928;-61
2024/03/01 05:10:08;;;;;;;;;;;;;;;;;;4181897;28;19968;-61
2024/03/01 05:12:13;;;;;;;;;;;;;;;;;;4195785;28;19921;-61
2024/03/01 05:14:15;;;;;;;;;;;;;;;;;;4191679;28;19924;-61
2024/03/01 05:16:18;;;;;;;;;;;;;;;;;;4191134;28;20368;-61
2024/03/01 05:18:20;;;;;;;;;;;;;;;;;;4186190;28;19928;-61
2024/03/01 05:20:22;;;;;;;;;;;;;;;;;;4181358;28;19921;-60
2024/03/01 05:22:23;;;;;;;;;;;;;;;;;;4181744;28;19967;-61
2024/03/01 05:24:25;;;;;;;;;;;;;;;;;;4181889;28;19971;-61
2024/03/01 05:26:27;;;;;;;;;;;;;;;;;;4181838;28;19928;-61
2024/03/01 05:28:28;;;;;;;;;;;;;;;;;;4181646;28;19925;-61
2024/03/01 05:30:31;;;;;;;;;;;;;;;;;;4181500;28;20376;-59
2024/03/01 05:32:45;;;;;;;;;;;;;;;;;;4181460;28;19927;-61
2024/03/01 05:34:46;;;;;;;;;;;;;;;;;;4181386;28;19921;-61
2024/03/01 05:36:48;;;;;;;;;;;;;;;;;;4181407;28;19921;-61
2024/03/01 05:38:49;;;;;;;;;;;;;;;;;;4181617;28;19921;-61
2024/03/01 05:40:51;;;;;;;;;;;;;;;;;;4186492;28;19924;-61
2024/03/01 05:42:55;;;;;;;;;;;;;;;;;;4191927;28;19978;-61
2024/03/01 05:44:57;;;;;;;;;;;;;;;;;;4197486;28;19920;-61
2024/03/01 05:46:58;;;;;;;;;;;;;;;;;;4172351;28;19947;-62
2024/03/01 05:49:00;;;;;;;;;;;;;;;;;;4181400;28;19927;-61
2024/03/01 05:51:01;;;;;;;;;;;;;;;;;;4189895;28;19921;-61
2024/03/01 05:53:03;;;;;;;;;;;;;;;;;;4163455;28;19928;-60
2024/03/01 05:55:08;;;;;;;;;;;;;;;;;;4181539;28;19927;-61
2024/03/01 05:57:10;;;;;;;;;;;;;;;;;;4181445;28;19928;-61
2024/03/01 05:59:12;;;;;;;;;;;;;;;;;;4183425;28;19920;-61
2024/03/01 06:01:16;;;;;;;;;;;;;;;;;;4184646;28;19927;-61
2024/03/01 06:03:18;;;;;;;;;;;;;;;;;;4181044;28;19974;-61
2024/03/01 06:05:19;;;;;;;;;;;;;;;;;;4181078;28;19967;-61
2024/03/01 06:07:21;;;;;;;;;;;;;;;;;;4180835;28;20381;-61
2024/03/01 06:09:22;;;;;;;;;;;;;;;;;;4180795;28;19932;-61
2024/03/01 06:11:24;;;;;;;;;;;;;;;;;;4181147;28;19974;-61
2024/03/01 06:13:25;;;;;;;;;;;;;;;;;;4180818;28;19929;-61
2024/03/01 06:15:28;;;;;;;;;;;;;;;;;;4181308;28;19964;-62
2024/03/01 06:17:29;;;;;;;;;;;;;;;;;;4181144;28;19928;-61
2024/03/01 06:19:31;;;;;;;;;;;;;;;;;;4180794;28;19978;-69
2024/03/01 06:21:33;;;;;;;;;;;;;;;;;;4180011;28;20435;-69
2024/03/01 06:23:34;;;;;;;;;;;;;;;;;;4184545;28;19973;-68
2024/03/01 06:25:35;;;;;;;;;;;;;;;;;;4197535;28;19978;-68
2024/03/01 06:27:37;;;;;;;;;;;;;;;;;;4197566;28;19924;-69
2024/03/01 06:29:39;;;;;;;;;;;;;;;;;;4190233;28;19924;-68
2024/03/01 06:31:40;;;;;;;;;;;;;;;;;;4194928;28;19928;-70
2024/03/01 06:33:42;;;;;;;;;;;;;;;;;;4184009;28;19968;-69
2024/03/01 06:35:43;;;;;;;;;;;;;;;;;;4179616;28;19925;-68
2024/03/01 06:37:47;;;;;;;;;;;;;;;;;;4180151;28;19967;-69
2024/03/01 06:39:48;;;;;;;;;;;;;;;;;;4180606;28;19920;-69
2024/03/01 06:41:50;;;;;;;;;;;;;;;;;;4181159;28;20015;-68
2024/03/01 06:43:51;;;;;;;;;;;;;;;;;;4180917;28;20293;-69
2024/03/01 06:45:53;;;;;;;;;;;;;;;;;;4182886;28;19928;-68
2024/03/01 06:47:55;;;;;;;;;;;;;;;;;;4184106;28;19920;-69
2024/03/01 06:50:00;;;;;;;;;;;;;;;;;;4184051;28;20381;-68
2024/03/01 06:52:01;;;;;;;;;;;;;;;;;;4184020;28;19947;-68
2024/03/01 06:54:03;;;;;;;;;;;;;;;;;;4184020;28;19925;-68
2024/03/01 06:56:04;;;;;;;;;;;;;;;;;;4189597;28;19963;-68
2024/03/01 06:58:05;;;;;;;;;;;;;;;;;;4183900;28;19971;-68
2024/03/01 07:00:07;;;;;;;;;;;;;;;;;;4183894;28;20007;-67
2024/03/01 07:02:09;;;;;;;;;;;;;;;;;;4183929;28;20391;-68
2024/03/01 07:04:10;;;;;;;;;;;;;;;;;;4183739;28;19921;-68
2024/03/01 07:06:12;;;;;;;;;;;;;;;;;;4183754;28;19924;-68
2024/03/01 07:08:13;;;;;;;;;;;;;;;;;;4183748;28;19931;-68
2024/03/01 07:10:15;;;;;;;;;;;;;;;;;;4183673;28;20345;-68
2024/03/01 07:12:17;;;;;;;;;;;;;;;;;;4183544;28;19924;-68
2024/03/01 07:14:19;;;;;;;;;;;;;;;;;;4183624;28;19970;-68
2024/03/01 07:16:20;;;;;;;;;;;;;;;;;;4183814;28;19927;-69
2024/03/01 07:18:22;;;;;;;;;;;;;;;;;;4183603;28;19970;-68
2024/03/01 07:20:23;;;;;;;;;;;;;;;;;;4183522;28;19928;-67
2024/03/01 07:22:25;;;;;;;;;;;;;;;;;;4183529;28;19969;-67
2024/03/01 07:24:27;;;;;;;;;;;;;;;;;;4183761;28;19920;-67
2024/03/01 07:26:29;;;;;;;;;;;;;;;;;;4183448;28;20375;-67
2024/03/01 07:28:30;;;;;;;;;;;;;;;;;;4183412;28;20319;-68
2024/03/01 07:30:32;;;;;;;;;;;;;;;;;;4165611;28;19964;-67
2024/03/01 07:32:34;;;;;;;;;;;;;;;;;;4183380;28;19920;-68
2024/03/01 07:34:35;;;;;;;;;;;;;;;;;;4183602;28;20423;-68
2024/03/01 07:36:37;;;;;;;;;;;;;;;;;;4183605;28;19927;-68
2024/03/01 07:38:39;;;;;;;;;;;;;;;;;;4183349;28;20400;-67
2024/03/01 07:40:40;;;;;;;;;;;;;;;;;;4183577;28;19920;-67
2024/03/01 07:42:42;;;;;;;;;;;;;;;;;;4183545;28;20112;-68
2024/03/01 07:44:43;;;;;;;;;;;;;;;;;;4182945;28;19966;-68
2024/03/01 07:46:45;;;;;;;;;;;;;;;;;;4183370;28;19920;-64
2024/03/01 07:48:46;;;;;;;;;;;;;;;;;;4183267;28;19920;-63
2024/03/01 07:50:48;;;;;;;;;;;;;;;;;;4183069;28;19927;-63
2024/03/01 07:52:50;;;;;;;;;;;;;;;;;;4188506;28;19921;-64
2024/03/01 07:54:51;;;;;;;;;;;;;;;;;;4183352;28;19920;-64
2024/03/01 07:56:52;;;;;;;;;;;;;;;;;;4181716;28;19975;-64
2024/03/01 07:58:54;;;;;;;;;;;;;;;;;;4183122;28;20288;-64
2024/03/01 08:00:56;;;;;;;;;;;;;;;;;;4183086;28;19978;-64
2024/03/01 08:02:57;;;;;;;;;;;;;;;;;;4182860;28;19925;-64
2024/03/01 08:04:59;;;;;;;;;;;;;;;;;;4182707;28;19928;-64
2024/03/01 08:07:01;;;;;;;;;;;;;;;;;;4182862;28;19920;-64
2024/03/01 08:09:03;;;;;;;;;;;;;;;;;;4182766;28;19978;-64
2024/03/01 08:11:05;;;;;;;;;;;;;;;;;;4182730;28;19929;-64
2024/03/01 08:13:07;;;;;;;;;;;;;;;;;;4182723;28;19978;-64
2024/03/01 08:15:09;;;;;;;;;;;;;;;;;;4182644;28;19968;-64
2024/03/01 08:17:10;;;;;;;;;;;;;;;;;;4182599;28;20428;-64
2024/03/01 08:19:12;;;;;;;;;;;;;;;;;;4182734;28;19963;-64
2024/03/01 08:21:13;;;;;;;;;;;;;;;;;;4182656;28;19921;-63
2024/03/01 08:23:15;;;;;;;;;;;;;;;;;;4182791;28;20012;-64
2024/03/01 08:25:16;;;;;;;;;;;;;;;;;;4182437;28;19936;-64
2024/03/01 08:27:18;;;;;;;;;;;;;;;;;;4182678;28;19972;-63
2024/03/01 08:29:19;;;;;;;;;;;;;;;;;;4182762;28;19921;-64
2024/03/01 08:31:21;;;;;;;;;;;;;;;;;;4182350;28;19950;-63
2024/03/01 08:33:22;;;;;;;;;;;;;;;;;;4182438;28;19920;-65
2024/03/01 08:35:24;;;;;;;;;;;;;;;;;;4182453;28;20397;-64
2024/03/01 08:37:25;;;;;;;;;;;;;;;;;;4182435;28;19924;-64
2024/03/01 08:39:27;;;;;;;;;;;;;;;;;;4182866;28;19925;-63
2024/03/01 08:41:29;;;;;;;;;;;;;;;;;;4182695;28;19947;-64
2024/03/01 08:43:30;;;;;;;;;;;;;;;;;;4182445;28;20331;-64
2024/03/01 08:45:32;;;;;;;;;;;;;;;;;;4181986;28;19924;-64
2024/03/01 08:47:39;;;;;;;;;;;;;;;;;;4182476;28;19974;-64
2024/03/01 08:49:41;;;;;;;;;;;;;;;;;;4187935;28;19931;-64
2024/03/01 08:51:42;;;;;;;;;;;;;;;;;;4164849;28;20008;-64
2024/03/01 08:53:44;;;;;;;;;;;;;;;;;;4182134;28;19920;-63
2024/03/01 08:55:45;;;;;;;;;;;;;;;;;;4182223;28;19952;-64
2024/03/01 08:57:47;;;;;;;;;;;;;;;;;;4182383;28;20335;-64
2024/03/01 08:59:49;;;;;;;;;;;;;;;;;;4182113;28;19960;-64
2024/03/01 09:01:50;;;;;;;;;;;;;;;;;;4182044;28;19928;-64
2024/03/01 09:03:52;;;;;;;;;;;;;;;;;;4181858;28;19950;-63
2024/03/01 09:05:55;;;;;;;;;;;;;;;;;;4181977;28;19920;-64
2024/03/01 09:08:00;;;;;;;;;;;;;;;;;;4163706;28;19925;-64
2024/03/01 09:10:04;;;;;;;;;;;;;;;;;;4182036;28;19928;-64
2024/03/01 09:12:06;;;;;;;;;;;;;;;;;;4181729;28;20368;-63
2024/03/01 09:14:07;;;;;;;;;;;;;;;;;;4181735;28;19968;-64
2024/03/01 09:16:09;;;;;;;;;;;;;;;;;;4181928;28;19927;-64
2024/03/01 09:18:10;;;;;;;;;;;;;;;;;;4181705;28;20012;-64
2024/03/01 09:20:12;;;;;;;;;;;;;;;;;;4181627;28;20335;-63
2024/03/01 09:22:13;;;;;;;;;;;;;;;;;;4181576;28;20261;-64
2024/03/01 09:24:15;;;;;;;;;;;;;;;;;;4181737;28;19944;-64
2024/03/01 09:26:17;;;;;;;;;;;;;;;;;;4181670;28;19932;-64
2024/03/01 09:28:19;;;;;;;;;;;;;;;;;;4181749;28;19986;-64
2024/03/01 09:30:21;;;;;;;;;;;;;;;;;;4181759;28;19928;-64
2024/03/01 09:32:23;;;;;;;;;;;;;;;;;;4181458;28;19943;-64
2024/03/01 09:34:25;;;;;;;;;;;;;;;;;;4181584;28;19924;-63
2024/03/01 09:36:26;;;;;;;;;;;;;;;;;;4181467;28;20483;-63
2024/03/01 09:38:28;;;;;;;;;;;;;;;;;;4181429;28;19936;-63
2024/03/01 09:40:30;;;;;;;;;;;;;;;;;;4181719;28;19920;-63
2024/03/01 09:42:32;;;;;;;;;;;;;;;;;;4181385;28;19921;-63
2024/03/01 09:44:33;;;;;;;;;;;;;;;;;;4186515;28;19927;-64
2024/03/01 09:46:35;;;;;;;;;;;;;;;;;;4181450;28;19986;-63
2024/03/01 09:48:39;;;;;;;;;;;;;;;;;;4181546;28;19920;-64
2024/03/01 09:50:41;;;;;;;;;;;;;;;;;;4181345;28;19920;-64
2024/03/01 09:52:42;;;;;;;;;;;;;;;;;;4181233;28;19920;-64
2024/03/01 09:54:44;;;;;;;;;;;;;;;;;;4181294;28;19920;-63
2024/03/01 09:56:45;;;;;;;;;;;;;;;;;;4181306;28;19921;-64
2024/03/01 09:58:47;;;;;;;;;;;;;;;;;;4181233;28;19956;-63
2024/03/01 10:00:48;;;;;;;;;;;;;;;;;;4181193;28;19979;-64
2024/03/01 10:02:50;;;;;;;;;;;;;;;;;;4181105;28;19927;-63
2024/03/01 10:04:51;;;;;;;;;;;;;;;;;;4180997;28;19925;-63
2024/03/01 10:06:53;;;;;;;;;;;;;;;;;;4181098;28;19921;-64
2024/03/01 10:08:55;;;;;;;;;;;;;;;;;;4163889;28;19921;-64
2024/03/01 10:10:56;;;;;;;;;;;;;;;;;;4181145;28;19920;-64
2024/03/01 10:12:59;;;;;;;;;;;;;;;;;;4181032;28;19940;-63
2024/03/01 10:15:01;;;;;;;;;;;;;;;;;;4181301;28;19924;-63
2024/03/01 10:17:02;;;;;;;;;;;;;;;;;;4181045;28;19921;-64
2024/03/01 10:19:04;;;;;;;;;;;;;;;;;;4180717;28;19920;-64
2024/03/01 10:21:05;;;;;;;;;;;;;;;;;;4180550;28;20315;-64
2024/03/01 10:23:07;;;;;;;;;;;;;;;;;;4180946;28;20327;-64
2024/03/01 10:25:10;;;;;;;;;;;;;;;;;;4163026;28;19933;-65
2024/03/01 10:27:14;;;;;;;;;;;;;;;;;;4180947;28;20333;-64
2024/03/01 10:29:15;;;;;;;;;;;;;;;;;;4180936;28;19940;-63
2024/03/01 10:31:17;;;;;;;;;;;;;;;;;;4180927;28;19921;-64
2024/03/01 10:33:18;;;;;;;;;;;;;;;;;;4180917;28;19925;-64
2024/03/01 10:35:20;;;;;;;;;;;;;;;;;;4181069;28;19921;-63
2024/03/01 10:37:22;;;;;;;;;;;;;;;;;;4180936;28;19970;-64
2024/03/01 10:39:23;;;;;;;;;;;;;;;;;;4180903;28;20007;-64
2024/03/01 10:41:25;;;;;;;;;;;;;;;;;;4186324;28;19921;-64
2024/03/01 10:43:28;;;;;;;;;;;;;;;;;;4181034;28;19939;-64
2024/03/01 10:45:30;;;;;;;;;;;;;;;;;;4180281;28;19975;-64
2024/03/01 10:47:31;;;;;;;;;;;;;;;;;;4184403;28;19920;-63
2024/03/01 10:49:33;;;;;;;;;;;;;;;;;;4188097;28;20396;-63
2024/03/01 10:51:34;;;;;;;;;;;;;;;;;;4188675;28;19928;-64
2024/03/01 10:53:36;;;;;;;;;;;;;;;;;;4187630;28;19970;-64
2024/03/01 10:55:38;;;;;;;;;;;;;;;;;;4182859;28;19924;-63
2024/03/01 10:57:42;;;;;;;;;;;;;;;;;;4190105;28;19920;-64
2024/03/01 10:59:47;;;;;;;;;;;;;;;;;;4187764;28;19925;-64
2024/03/01 11:01:52;;;;;;;;;;;;;;;;;;4182918;28;20392;-64
2024/03/01 11:03:53;;;;;;;;;;;;;;;;;;4189027;28;19920;-63
2024/03/01 11:05:55;;;;;;;;;;;;;;;;;;4190906;28;20292;-63
2024/03/01 11:07:57;;;;;;;;;;;;;;;;;;4197022;28;19921;-63
2024/03/01 11:09:59;;;;;;;;;;;;;;;;;;4197158;28;19928;-64
2024/03/01 11:12:00;;;;;;;;;;;;;;;;;;4196841;28;20269;-64
2024/03/01 11:14:02;;;;;;;;;;;;;;;;;;4196993;28;19971;-64
2024/03/01 11:16:04;;;;;;;;;;;;;;;;;;4183894;28;20380;-64
2024/03/01 11:18:06;;;;;;;;;;;;;;;;;;4189364;28;19927;-65
2024/03/01 11:20:12;;;;;;;;;;;;;;;;;;4183247;28;19920;-68
2024/03/01 11:22:14;;;;;;;;;;;;;;;;;;4181552;28;19928;-68
2024/03/01 11:24:15;;;;;;;;;;;;;;;;;;4189832;28;20345;-69
2024/03/01 11:26:17;;;;;;;;;;;;;;;;;;4188586;28;19925;-69
2024/03/01 11:28:18;;;;;;;;;;;;;;;;;;4185537;28;19931;-69
2024/03/01 11:30:20;;;;;;;;;;;;;;;;;;4170114;28;19952;-69
2024/03/01 11:32:22;;;;;;;;;;;;;;;;;;4190841;28;19967;-70
2024/03/01 11:34:23;;;;;;;;;;;;;;;;;;4190199;28;19921;-69
2024/03/01 11:36:26;;;;;;;;;;;;;;;;;;4154396;28;20007;-69
2024/03/01 11:38:27;;;;;;;;;;;;;;;;;;4192647;28;19929;-69
2024/03/01 11:40:29;;;;;;;;;;;;;;;;;;4190640;28;19928;-70
2024/03/01 11:42:31;;;;;;;;;;;;;;;;;;4191265;28;20398;-70
2024/03/01 11:44:34;;;;;;;;;;;;;;;;;;4188914;28;19999;-69
2024/03/01 11:46:38;;;;;;;;;;;;;;;;;;4191192;28;19921;-69
2024/03/01 11:48:39;;;;;;;;;;;;;;;;;;4187161;28;20539;-69
2024/03/01 11:50:41;;;;;;;;;;;;;;;;;;4187198;28;19920;-70
2024/03/01 11:52:42;;;;;;;;;;;;;;;;;;4187599;28;19920;-70
2024/03/01 11:54:44;;;;;;;;;;;;;;;;;;4197635;28;20331;-69
2024/03/01 11:56:46;;;;;;;;;;;;;;;;;;4199916;28;19920;-69
2024/03/01 11:58:47;;;;;;;;;;;;;;;;;;4185326;28;20261;-71
2024/03/01 12:00:49;;;;;;;;;;;;;;;;;;4187478;28;19932;-70
2024/03/01 12:02:50;;;;;;;;;;;;;;;;;;4189935;28;19921;-69
2024/03/01 12:04:52;;;;;;;;;;;;;;;;;;4188200;28;19970;-70
2024/03/01 12:06:53;;;;;;;;;;;;;;;;;;4188175;28;19920;-69
2024/03/01 12:08:55;;;;;;;;;;;;;;;;;;4191056;28;20372;-69
2024/03/01 12:10:56;;;;;;;;;;;;;;;;;;4188356;28;20327;-70
2024/03/01 12:12:58;;;;;;;;;;;;;;;;;;4189135;28;19928;-69
2024/03/01 12:14:59;;;;;;;;;;;;;;;;;;4190628;28;19924;-69
2024/03/01 12:17:01;;;;;;;;;;;;;;;;;;4181851;28;20422;-69
2024/03/01 12:19:02;;;;;;;;;;;;;;;;;;4180794;28;19925;-70
2024/03/01 12:21:04;;;;;;;;;;;;;;;;;;4187406;28;19924;-69
2024/03/01 12:23:06;;;;;;;;;;;;;;;;;;4192252;28;19928;-69
2024/03/01 12:25:07;;;;;;;;;;;;;;;;;;4192705;28;20430;-68
2024/03/01 12:27:09;;;;;;;;;;;;;;;;;;4171165;28;19961;-69
2024/03/01 12:29:10;;;;;;;;;;;;;;;;;;4192136;28;20375;-64
2024/03/01 12:31:12;;;;;;;;;;;;;;;;;;4183156;28;19960;-63
2024/03/01 12:33:13;;;;;;;;;;;;;;;;;;4185114;28;19991;-63
2024/03/01 12:35:15;;;;;;;;;;;;;;;;;;4184593;28;19932;-64
2024/03/01 12:37:17;;;;;;;;;;;;;;;;;;4177825;28;20011;-64
2024/03/01 12:39:19;;;;;;;;;;;;;;;;;;4188554;28;19967;-63
2024/03/01 12:41:20;;;;;;;;;;;;;;;;;;4186958;28;20285;-57
2024/03/01 12:43:22;;;;;;;;;;;;;;;;;;4191037;28;19920;-58
2024/03/01 12:45:31;;;;;;;;;;;;;;;;;;4195171;28;19924;-57
2024/03/01 12:47:32;;;;;;;;;;;;;;;;;;4198809;28;19971;-56
2024/03/01 12:49:34;;;;;;;;;;;;;;;;;;4185746;28;19921;-57
2024/03/01 12:51:36;;;;;;;;;;;;;;;;;;4182138;28;19921;-57
2024/03/01 12:53:37;;;;;;;;;;;;;;;;;;4181024;28;19928;-57
2024/03/01 12:55:40;;;;;;;;;;;;;;;;;;4181067;28;19920;-57
2024/03/01 12:57:41;;;;;;;;;;;;;;;;;;4181641;28;19947;-57
2024/03/01 12:59:44;;;;;;;;;;;;;;;;;;4182421;28;19921;-58
2024/03/01 13:01:45;;;;;;;;;;;;;;;;;;4182048;28;19932;-57
2024/03/01 13:03:46;;;;;;;;;;;;;;;;;;4181825;28;19928;-57
2024/03/01 13:05:48;;;;;;;;;;;;;;;;;;4182039;28;19970;-57
2024/03/01 13:07:51;;;;;;;;;;;;;;;;;;4181845;28;20376;-57
2024/03/01 13:09:52;;;;;;;;;;;;;;;;;;4182207;28;19920;-57
2024/03/01 13:11:55;;;;;;;;;;;;;;;;;;4182011;28;19924;-57
2024/03/01 13:13:58;;;;;;;;;;;;;;;;;;4181930;28;19971;-57
2024/03/01 13:15:59;;;;;;;;;;;;;;;;;;4185065;28;19929;-57
2024/03/01 13:18:01;;;;;;;;;;;;;;;;;;4188982;28;19921;-57
2024/03/01 13:20:10;;;;;;;;;;;;;;;;;;4188109;28;19920;-58
2024/03/01 13:22:12;;;;;;;;;;;;;;;;;;4187772;28;19974;-57
2024/03/01 13:24:15;;;;;;;;;;;;;;;;;;4185617;28;19924;-57
2024/03/01 13:26:16;;;;;;;;;;;;;;;;;;4188507;28;19954;-58
2024/03/01 13:28:35;;;;;;;;;;;;;;;;;;4186863;28;19915;-58
2024/03/01 13:30:37;;;;;;;;;;;;;;;;;;4187296;28;20040;-58
2024/03/01 13:32:38;;;;;;;;;;;;;;;;;;4180995;28;20381;-58
2024/03/01 13:34:40;;;;;;;;;;;;;;;;;;4193126;28;20476;-57
2024/03/01 13:36:41;;;;;;;;;;;;;;;;;;4181661;28;20001;-57
2024/03/01 13:38:43;;;;;;;;;;;;;;;;;;4181444;28;19925;-58
2024/03/01 13:40:47;;;;;;;;;;;;;;;;;;4181336;28;20377;-57
2024/03/01 13:42:49;;;;;;;;;;;;;;;;;;4181329;28;19920;-58
2024/03/01 13:44:50;;;;;;;;;;;;;;;;;;4181152;28;19946;-58
2024/03/01 13:46:51;;;;;;;;;;;;;;;;;;4181306;28;19921;-58
2024/03/01 13:48:53;;;;;;;;;;;;;;;;;;4180843;28;19925;-58
2024/03/01 13:50:55;;;;;;;;;;;;;;;;;;4181182;28;20281;-58
2024/03/01 13:52:56;;;;;;;;;;;;;;;;;;4181209;28;20326;-59